sensor_id;sensor_type;location;lat;lon;timestamp;temperature;humidity
5940;DHT22;2995;-31.998;115.906;2023-05-19T00:00:26;15.00;99.90
5940;DHT22;2995;-31.998;115.906;2023-05-19T00:02:58;15.20;99.90
5940;DHT22;2995;-31.998;115.906;2023-05-19T00:05:32;15.20;99.90
5940;DHT22;2995;-31.998;115.906;2023-05-19T00:08:09;15.20;99.90
5940;DHT22;2995;-31.998;115.906;2023-05-19T00:10:41;15.10;99.90
5940;DHT22;2995;-31.998;115.906;2023-05-19T00:13:13;15.00;99.90
5940;DHT22;2995;-31.998;115.906;2023-05-19T00:15:45;15.10;99.90
5940;DHT22;2995;-31.998;115.906;2023-05-19T00:18:16;15.10;99.90
5940;DHT22;2995;-31.998;115.906;2023-05-19T00:20:49;15.20;99.90
5940;DHT22;2995;-31.998;115.906;2023-05-19T00:23:20;15.30;99.90
5940;DHT22;2995;-31.998;115.906;2023-05-19T00:25:52;15.50;99.90
5940;DHT22;2995;-31.998;115.906;2023-05-19T00:28:23;15.50;99.90
5940;DHT22;2995;-31.998;115.906;2023-05-19T00:30:54;15.70;99.90
5940;DHT22;2995;-31.998;115.906;2023-05-19T00:33:25;15.90;99.90
5940;DHT22;2995;-31.998;115.906;2023-05-19T00:35:58;16.00;99.90
5940;DHT22;2995;-31.998;115.906;2023-05-19T00:38:32;16.20;99.90
5940;DHT22;2995;-31.998;115.906;2023-05-19T00:41:04;16.20;99.90
5940;DHT22;2995;-31.998;115.906;2023-05-19T00:43:36;16.20;99.90
5940;DHT22;2995;-31.998;115.906;2023-05-19T00:46:07;16.10;99.90
5940;DHT22;2995;-31.998;115.906;2023-05-19T00:48:39;16.20;99.90
5940;DHT22;2995;-31.998;115.906;2023-05-19T00:51:14;16.40;99.90
5940;DHT22;2995;-31.998;115.906;2023-05-19T00:53:46;16.50;99.90
5940;DHT22;2995;-31.998;115.906;2023-05-19T00:56:19;16.50;99.90
5940;DHT22;2995;-31.998;115.906;2023-05-19T00:58:51;16.60;99.90
5940;DHT22;2995;-31.998;115.906;2023-05-19T01:01:23;16.80;99.90
5940;DHT22;2995;-31.998;115.906;2023-05-19T01:03:54;16.90;99.90
5940;DHT22;2995;-31.998;115.906;2023-05-19T01:06:28;17.00;99.90
5940;DHT22;2995;-31.998;115.906;2023-05-19T01:08:59;17.30;99.90
5940;DHT22;2995;-31.998;115.906;2023-05-19T01:11:30;17.30;99.90
5940;DHT22;2995;-31.998;115.906;2023-05-19T01:14:02;17.40;99.90
5940;DHT22;2995;-31.998;115.906;2023-05-19T01:16:36;17.60;99.90
5940;DHT22;2995;-31.998;115.906;2023-05-19T01:19:27;17.50;99.90
5940;DHT22;2995;-31.998;115.906;2023-05-19T01:22:26;17.40;99.90
5940;DHT22;2995;-31.998;115.906;2023-05-19T01:28:32;17.90;99.90
5940;DHT22;2995;-31.998;115.906;2023-05-19T01:31:11;18.00;99.90
5940;DHT22;2995;-31.998;115.906;2023-05-19T01:33:44;18.10;99.90
5940;DHT22;2995;-31.998;115.906;2023-05-19T01:36:16;18.20;99.90
5940;DHT22;2995;-31.998;115.906;2023-05-19T01:38:51;18.20;99.90
5940;DHT22;2995;-31.998;115.906;2023-05-19T01:41:25;18.40;99.90
5940;DHT22;2995;-31.998;115.906;2023-05-19T01:43:57;18.60;99.90
5940;DHT22;2995;-31.998;115.906;2023-05-19T01:46:30;18.60;99.90
5940;DHT22;2995;-31.998;115.906;2023-05-19T01:49:02;18.60;99.90
5940;DHT22;2995;-31.998;115.906;2023-05-19T01:51:33;18.70;99.90
5940;DHT22;2995;-31.998;115.906;2023-05-19T01:54:05;18.90;99.90
5940;DHT22;2995;-31.998;115.906;2023-05-19T01:56:41;18.90;99.90
5940;DHT22;2995;-31.998;115.906;2023-05-19T01:59:26;18.90;99.90
5940;DHT22;2995;-31.998;115.906;2023-05-19T02:02:09;19.00;99.90
5940;DHT22;2995;-31.998;115.906;2023-05-19T02:04:50;19.20;99.90
5940;DHT22;2995;-31.998;115.906;2023-05-19T02:07:30;19.30;99.90
5940;DHT22;2995;-31.998;115.906;2023-05-19T02:10:08;19.40;99.90
5940;DHT22;2995;-31.998;115.906;2023-05-19T02:12:41;19.40;99.90
5940;DHT22;2995;-31.998;115.906;2023-05-19T02:15:16;19.40;99.90
5940;DHT22;2995;-31.998;115.906;2023-05-19T02:17:50;19.40;99.90
5940;DHT22;2995;-31.998;115.906;2023-05-19T02:20:23;19.50;99.90
5940;DHT22;2995;-31.998;115.906;2023-05-19T02:22:54;19.50;99.90
5940;DHT22;2995;-31.998;115.906;2023-05-19T02:25:25;19.60;99.90
5940;DHT22;2995;-31.998;115.906;2023-05-19T02:27:57;19.80;99.90
5940;DHT22;2995;-31.998;115.906;2023-05-19T02:30:30;19.80;99.90
5940;DHT22;2995;-31.998;115.906;2023-05-19T02:33:06;20.00;99.90
5940;DHT22;2995;-31.998;115.906;2023-05-19T02:35:40;20.00;99.90
5940;DHT22;2995;-31.998;115.906;2023-05-19T02:38:14;20.00;99.90
5940;DHT22;2995;-31.998;115.906;2023-05-19T02:40:47;20.10;99.90
5940;DHT22;2995;-31.998;115.906;2023-05-19T02:43:21;20.20;99.90
5940;DHT22;2995;-31.998;115.906;2023-05-19T02:45:54;20.30;99.90
5940;DHT22;2995;-31.998;115.906;2023-05-19T02:48:30;20.30;99.90
5940;DHT22;2995;-31.998;115.906;2023-05-19T02:51:03;20.20;99.90
5940;DHT22;2995;-31.998;115.906;2023-05-19T02:53:36;20.10;99.90
5940;DHT22;2995;-31.998;115.906;2023-05-19T02:56:08;20.10;99.90
5940;DHT22;2995;-31.998;115.906;2023-05-19T02:58:42;20.20;99.90
5940;DHT22;2995;-31.998;115.906;2023-05-19T03:01:13;20.20;99.90
5940;DHT22;2995;-31.998;115.906;2023-05-19T03:03:47;20.30;99.90
5940;DHT22;2995;-31.998;115.906;2023-05-19T03:06:18;20.40;99.90
5940;DHT22;2995;-31.998;115.906;2023-05-19T03:08:50;20.60;99.90
5940;DHT22;2995;-31.998;115.906;2023-05-19T03:11:21;20.80;99.90
5940;DHT22;2995;-31.998;115.906;2023-05-19T03:13:53;21.00;99.90
5940;DHT22;2995;-31.998;115.906;2023-05-19T03:16:24;21.10;99.90
5940;DHT22;2995;-31.998;115.906;2023-05-19T03:18:57;21.20;99.90
5940;DHT22;2995;-31.998;115.906;2023-05-19T03:21:29;21.30;99.90
5940;DHT22;2995;-31.998;115.906;2023-05-19T03:24:01;21.30;99.90
5940;DHT22;2995;-31.998;115.906;2023-05-19T03:26:32;21.40;99.90
5940;DHT22;2995;-31.998;115.906;2023-05-19T03:29:04;21.50;99.90
5940;DHT22;2995;-31.998;115.906;2023-05-19T03:31:38;21.60;99.90
5940;DHT22;2995;-31.998;115.906;2023-05-19T03:34:13;21.70;99.90
5940;DHT22;2995;-31.998;115.906;2023-05-19T03:36:44;21.70;99.90
5940;DHT22;2995;-31.998;115.906;2023-05-19T03:39:17;21.80;99.90
5940;DHT22;2995;-31.998;115.906;2023-05-19T03:41:48;21.90;99.90
5940;DHT22;2995;-31.998;115.906;2023-05-19T03:44:20;21.90;99.90
5940;DHT22;2995;-31.998;115.906;2023-05-19T03:46:51;21.90;99.90
5940;DHT22;2995;-31.998;115.906;2023-05-19T03:49:24;22.10;99.90
5940;DHT22;2995;-31.998;115.906;2023-05-19T03:51:55;22.10;99.90
5940;DHT22;2995;-31.998;115.906;2023-05-19T03:54:27;22.10;99.90
5940;DHT22;2995;-31.998;115.906;2023-05-19T03:56:58;22.20;99.90
5940;DHT22;2995;-31.998;115.906;2023-05-19T03:59:29;22.30;99.90
5940;DHT22;2995;-31.998;115.906;2023-05-19T04:02:01;22.50;99.90
5940;DHT22;2995;-31.998;115.906;2023-05-19T04:04:34;22.60;99.90
5940;DHT22;2995;-31.998;115.906;2023-05-19T04:07:05;22.70;99.90
5940;DHT22;2995;-31.998;115.906;2023-05-19T04:09:37;22.70;99.90
5940;DHT22;2995;-31.998;115.906;2023-05-19T04:12:08;22.90;99.90
5940;DHT22;2995;-31.998;115.906;2023-05-19T04:14:39;23.00;99.90
5940;DHT22;2995;-31.998;115.906;2023-05-19T04:17:11;23.00;99.90
5940;DHT22;2995;-31.998;115.906;2023-05-19T04:19:44;23.10;99.90
5940;DHT22;2995;-31.998;115.906;2023-05-19T04:22:15;23.20;99.90
5940;DHT22;2995;-31.998;115.906;2023-05-19T04:24:46;23.30;99.90
5940;DHT22;2995;-31.998;115.906;2023-05-19T04:27:19;23.30;99.90
5940;DHT22;2995;-31.998;115.906;2023-05-19T04:29:50;23.30;99.90
5940;DHT22;2995;-31.998;115.906;2023-05-19T04:32:22;23.40;99.90
5940;DHT22;2995;-31.998;115.906;2023-05-19T04:35:01;23.60;99.90
5940;DHT22;2995;-31.998;115.906;2023-05-19T04:37:35;23.70;99.90
5940;DHT22;2995;-31.998;115.906;2023-05-19T04:40:09;23.70;99.90
5940;DHT22;2995;-31.998;115.906;2023-05-19T04:42:44;23.60;99.90
5940;DHT22;2995;-31.998;115.906;2023-05-19T04:45:18;23.60;99.90
5940;DHT22;2995;-31.998;115.906;2023-05-19T04:47:52;23.60;99.90
5940;DHT22;2995;-31.998;115.906;2023-05-19T04:50:28;23.50;99.90
5940;DHT22;2995;-31.998;115.906;2023-05-19T04:53:02;23.60;99.90
5940;DHT22;2995;-31.998;115.906;2023-05-19T04:55:36;23.60;99.90
5940;DHT22;2995;-31.998;115.906;2023-05-19T04:58:08;23.70;99.90
5940;DHT22;2995;-31.998;115.906;2023-05-19T05:00:40;23.60;99.90
5940;DHT22;2995;-31.998;115.906;2023-05-19T05:03:11;23.70;99.90
5940;DHT22;2995;-31.998;115.906;2023-05-19T05:05:45;23.80;99.90
5940;DHT22;2995;-31.998;115.906;2023-05-19T05:08:16;23.80;99.90
5940;DHT22;2995;-31.998;115.906;2023-05-19T05:10:51;24.00;99.90
5940;DHT22;2995;-31.998;115.906;2023-05-19T05:13:23;24.00;99.90
5940;DHT22;2995;-31.998;115.906;2023-05-19T05:15:54;24.10;99.90
5940;DHT22;2995;-31.998;115.906;2023-05-19T05:18:26;24.20;99.90
5940;DHT22;2995;-31.998;115.906;2023-05-19T05:21:00;24.10;99.90
5940;DHT22;2995;-31.998;115.906;2023-05-19T05:23:32;23.90;99.90
5940;DHT22;2995;-31.998;115.906;2023-05-19T05:26:08;24.00;99.90
5940;DHT22;2995;-31.998;115.906;2023-05-19T05:28:40;24.10;99.90
5940;DHT22;2995;-31.998;115.906;2023-05-19T05:31:11;24.20;99.90
5940;DHT22;2995;-31.998;115.906;2023-05-19T05:33:43;24.20;99.90
5940;DHT22;2995;-31.998;115.906;2023-05-19T05:36:17;24.30;99.90
5940;DHT22;2995;-31.998;115.906;2023-05-19T05:38:48;24.40;99.90
5940;DHT22;2995;-31.998;115.906;2023-05-19T05:41:20;24.30;99.90
5940;DHT22;2995;-31.998;115.906;2023-05-19T05:43:51;24.20;99.90
5940;DHT22;2995;-31.998;115.906;2023-05-19T05:46:22;24.20;99.90
5940;DHT22;2995;-31.998;115.906;2023-05-19T05:48:55;24.40;99.90
5940;DHT22;2995;-31.998;115.906;2023-05-19T05:51:29;24.50;99.90
5940;DHT22;2995;-31.998;115.906;2023-05-19T05:54:01;24.50;99.90
5940;DHT22;2995;-31.998;115.906;2023-05-19T05:56:33;24.50;99.90
5940;DHT22;2995;-31.998;115.906;2023-05-19T05:59:04;24.60;99.90
5940;DHT22;2995;-31.998;115.906;2023-05-19T06:01:35;24.50;99.90
5940;DHT22;2995;-31.998;115.906;2023-05-19T06:04:06;24.50;99.90
5940;DHT22;2995;-31.998;115.906;2023-05-19T06:06:39;24.50;99.90
5940;DHT22;2995;-31.998;115.906;2023-05-19T06:09:11;24.40;99.90
5940;DHT22;2995;-31.998;115.906;2023-05-19T06:11:42;24.50;99.90
5940;DHT22;2995;-31.998;115.906;2023-05-19T06:14:13;24.60;99.90
5940;DHT22;2995;-31.998;115.906;2023-05-19T06:16:46;24.60;99.90
5940;DHT22;2995;-31.998;115.906;2023-05-19T06:19:19;24.60;99.90
5940;DHT22;2995;-31.998;115.906;2023-05-19T06:21:54;24.60;99.90
5940;DHT22;2995;-31.998;115.906;2023-05-19T06:24:25;24.60;99.90
5940;DHT22;2995;-31.998;115.906;2023-05-19T06:26:56;24.50;99.90
5940;DHT22;2995;-31.998;115.906;2023-05-19T06:29:27;24.50;99.90
5940;DHT22;2995;-31.998;115.906;2023-05-19T06:31:59;24.40;99.90
5940;DHT22;2995;-31.998;115.906;2023-05-19T06:34:31;24.60;99.90
5940;DHT22;2995;-31.998;115.906;2023-05-19T06:37:08;24.50;99.90
5940;DHT22;2995;-31.998;115.906;2023-05-19T06:39:43;24.50;99.90
5940;DHT22;2995;-31.998;115.906;2023-05-19T06:42:16;24.30;99.90
5940;DHT22;2995;-31.998;115.906;2023-05-19T06:44:52;24.20;99.90
5940;DHT22;2995;-31.998;115.906;2023-05-19T06:47:25;24.10;99.90
5940;DHT22;2995;-31.998;115.906;2023-05-19T06:49:58;24.10;99.90
5940;DHT22;2995;-31.998;115.906;2023-05-19T06:52:34;24.10;99.90
5940;DHT22;2995;-31.998;115.906;2023-05-19T06:55:08;24.10;99.90
5940;DHT22;2995;-31.998;115.906;2023-05-19T06:57:42;24.10;99.90
5940;DHT22;2995;-31.998;115.906;2023-05-19T07:00:19;24.10;99.90
5940;DHT22;2995;-31.998;115.906;2023-05-19T07:02:50;24.10;99.90
5940;DHT22;2995;-31.998;115.906;2023-05-19T07:05:21;24.00;99.90
5940;DHT22;2995;-31.998;115.906;2023-05-19T07:07:55;23.90;99.90
5940;DHT22;2995;-31.998;115.906;2023-05-19T07:10:26;23.90;99.90
5940;DHT22;2995;-31.998;115.906;2023-05-19T07:12:57;23.80;99.90
5940;DHT22;2995;-31.998;115.906;2023-05-19T07:15:28;23.80;99.90
5940;DHT22;2995;-31.998;115.906;2023-05-19T07:18:00;23.70;99.90
5940;DHT22;2995;-31.998;115.906;2023-05-19T07:20:31;23.60;99.90
5940;DHT22;2995;-31.998;115.906;2023-05-19T07:23:04;23.60;99.90
5940;DHT22;2995;-31.998;115.906;2023-05-19T07:25:35;23.60;99.90
5940;DHT22;2995;-31.998;115.906;2023-05-19T07:28:07;23.60;99.90
5940;DHT22;2995;-31.998;115.906;2023-05-19T07:30:38;23.70;99.90
5940;DHT22;2995;-31.998;115.906;2023-05-19T07:33:10;23.70;99.90
5940;DHT22;2995;-31.998;115.906;2023-05-19T07:35:41;23.60;99.90
5940;DHT22;2995;-31.998;115.906;2023-05-19T07:38:14;23.70;99.90
5940;DHT22;2995;-31.998;115.906;2023-05-19T07:40:45;23.70;99.90
5940;DHT22;2995;-31.998;115.906;2023-05-19T07:43:17;23.60;99.90
5940;DHT22;2995;-31.998;115.906;2023-05-19T07:45:48;23.70;99.90
5940;DHT22;2995;-31.998;115.906;2023-05-19T07:48:20;23.80;99.90
5940;DHT22;2995;-31.998;115.906;2023-05-19T07:50:53;23.70;99.90
5940;DHT22;2995;-31.998;115.906;2023-05-19T07:53:26;23.70;99.90
5940;DHT22;2995;-31.998;115.906;2023-05-19T07:55:57;23.70;99.90
5940;DHT22;2995;-31.998;115.906;2023-05-19T07:58:28;23.80;99.90
5940;DHT22;2995;-31.998;115.906;2023-05-19T08:01:00;23.80;99.90
5940;DHT22;2995;-31.998;115.906;2023-05-19T08:03:31;23.80;99.90
5940;DHT22;2995;-31.998;115.906;2023-05-19T08:06:03;23.80;99.90
5940;DHT22;2995;-31.998;115.906;2023-05-19T08:08:36;23.70;99.90
5940;DHT22;2995;-31.998;115.906;2023-05-19T08:11:07;23.60;99.90
5940;DHT22;2995;-31.998;115.906;2023-05-19T08:13:38;23.60;99.90
5940;DHT22;2995;-31.998;115.906;2023-05-19T08:16:10;23.60;99.90
5940;DHT22;2995;-31.998;115.906;2023-05-19T08:18:41;23.60;99.90
5940;DHT22;2995;-31.998;115.906;2023-05-19T08:21:12;23.50;99.90
5940;DHT22;2995;-31.998;115.906;2023-05-19T08:23:45;23.50;99.90
5940;DHT22;2995;-31.998;115.906;2023-05-19T08:26:17;23.60;99.90
5940;DHT22;2995;-31.998;115.906;2023-05-19T08:28:48;23.50;99.90
5940;DHT22;2995;-31.998;115.906;2023-05-19T08:31:20;23.50;99.90
5940;DHT22;2995;-31.998;115.906;2023-05-19T08:33:51;23.40;99.90
5940;DHT22;2995;-31.998;115.906;2023-05-19T08:36:24;23.30;99.90
5940;DHT22;2995;-31.998;115.906;2023-05-19T08:38:59;23.30;99.90
5940;DHT22;2995;-31.998;115.906;2023-05-19T08:41:33;23.30;99.90
5940;DHT22;2995;-31.998;115.906;2023-05-19T08:44:06;23.30;99.90
5940;DHT22;2995;-31.998;115.906;2023-05-19T08:46:40;23.30;99.90
5940;DHT22;2995;-31.998;115.906;2023-05-19T08:49:19;23.30;99.90
5940;DHT22;2995;-31.998;115.906;2023-05-19T08:51:59;23.20;99.90
5940;DHT22;2995;-31.998;115.906;2023-05-19T08:54:44;23.10;99.90
5940;DHT22;2995;-31.998;115.906;2023-05-19T08:57:19;23.10;99.90
5940;DHT22;2995;-31.998;115.906;2023-05-19T08:59:53;23.10;99.90
5940;DHT22;2995;-31.998;115.906;2023-05-19T09:02:25;23.00;99.90
5940;DHT22;2995;-31.998;115.906;2023-05-19T09:04:57;23.00;99.90
5940;DHT22;2995;-31.998;115.906;2023-05-19T09:07:29;23.00;99.90
5940;DHT22;2995;-31.998;115.906;2023-05-19T09:10:04;22.80;99.90
5940;DHT22;2995;-31.998;115.906;2023-05-19T09:12:36;22.60;99.90
5940;DHT22;2995;-31.998;115.906;2023-05-19T09:15:08;22.50;99.90
5940;DHT22;2995;-31.998;115.906;2023-05-19T09:17:39;22.50;99.90
5940;DHT22;2995;-31.998;115.906;2023-05-19T09:20:11;22.40;99.90
5940;DHT22;2995;-31.998;115.906;2023-05-19T09:22:43;22.30;99.90
5940;DHT22;2995;-31.998;115.906;2023-05-19T09:25:23;22.20;99.90
5940;DHT22;2995;-31.998;115.906;2023-05-19T09:27:55;22.00;99.90
5940;DHT22;2995;-31.998;115.906;2023-05-19T09:30:26;22.00;99.90
5940;DHT22;2995;-31.998;115.906;2023-05-19T09:32:57;21.80;99.90
5940;DHT22;2995;-31.998;115.906;2023-05-19T09:35:28;21.70;99.90
5940;DHT22;2995;-31.998;115.906;2023-05-19T09:38:01;21.60;99.90
5940;DHT22;2995;-31.998;115.906;2023-05-19T09:40:34;21.40;99.90
5940;DHT22;2995;-31.998;115.906;2023-05-19T09:43:08;21.40;99.90
5940;DHT22;2995;-31.998;115.906;2023-05-19T09:45:39;21.30;99.90
5940;DHT22;2995;-31.998;115.906;2023-05-19T09:48:10;21.20;99.90
5940;DHT22;2995;-31.998;115.906;2023-05-19T09:50:43;21.10;99.90
5940;DHT22;2995;-31.998;115.906;2023-05-19T09:53:17;21.00;99.90
5940;DHT22;2995;-31.998;115.906;2023-05-19T09:55:53;20.90;99.90
5940;DHT22;2995;-31.998;115.906;2023-05-19T09:58:29;20.80;99.90
5940;DHT22;2995;-31.998;115.906;2023-05-19T10:01:01;20.70;99.90
5940;DHT22;2995;-31.998;115.906;2023-05-19T10:03:33;20.60;99.90
5940;DHT22;2995;-31.998;115.906;2023-05-19T10:06:06;20.60;99.90
5940;DHT22;2995;-31.998;115.906;2023-05-19T10:08:38;20.50;99.90
5940;DHT22;2995;-31.998;115.906;2023-05-19T10:11:11;20.60;99.90
5940;DHT22;2995;-31.998;115.906;2023-05-19T10:13:43;20.50;99.90
5940;DHT22;2995;-31.998;115.906;2023-05-19T10:16:16;20.50;99.90
5940;DHT22;2995;-31.998;115.906;2023-05-19T10:18:50;20.40;99.90
5940;DHT22;2995;-31.998;115.906;2023-05-19T10:21:24;20.40;99.90
5940;DHT22;2995;-31.998;115.906;2023-05-19T10:23:57;20.30;99.90
5940;DHT22;2995;-31.998;115.906;2023-05-19T10:26:33;20.20;99.90
5940;DHT22;2995;-31.998;115.906;2023-05-19T10:29:07;20.00;99.90
5940;DHT22;2995;-31.998;115.906;2023-05-19T10:31:41;20.00;99.90
5940;DHT22;2995;-31.998;115.906;2023-05-19T10:34:46;19.90;99.90
5940;DHT22;2995;-31.998;115.906;2023-05-19T10:37:27;19.80;99.90
5940;DHT22;2995;-31.998;115.906;2023-05-19T10:40:05;19.80;99.90
5940;DHT22;2995;-31.998;115.906;2023-05-19T10:42:49;19.70;99.90
5940;DHT22;2995;-31.998;115.906;2023-05-19T10:45:28;19.60;99.90
5940;DHT22;2995;-31.998;115.906;2023-05-19T10:48:01;19.50;99.90
5940;DHT22;2995;-31.998;115.906;2023-05-19T10:50:37;19.40;99.90
5940;DHT22;2995;-31.998;115.906;2023-05-19T10:53:14;19.30;99.90
5940;DHT22;2995;-31.998;115.906;2023-05-19T10:55:48;19.10;99.90
5940;DHT22;2995;-31.998;115.906;2023-05-19T10:58:48;19.00;99.90
5940;DHT22;2995;-31.998;115.906;2023-05-19T11:01:20;18.90;99.90
5940;DHT22;2995;-31.998;115.906;2023-05-19T11:03:53;18.80;99.90
5940;DHT22;2995;-31.998;115.906;2023-05-19T11:06:28;18.80;99.90
5940;DHT22;2995;-31.998;115.906;2023-05-19T11:09:00;18.80;99.90
5940;DHT22;2995;-31.998;115.906;2023-05-19T11:11:45;18.80;99.90
5940;DHT22;2995;-31.998;115.906;2023-05-19T11:14:20;18.60;99.90
5940;DHT22;2995;-31.998;115.906;2023-05-19T11:16:55;18.60;99.90
5940;DHT22;2995;-31.998;115.906;2023-05-19T11:19:27;18.60;99.90
5940;DHT22;2995;-31.998;115.906;2023-05-19T11:22:09;18.60;99.90
5940;DHT22;2995;-31.998;115.906;2023-05-19T11:24:44;18.60;99.90
5940;DHT22;2995;-31.998;115.906;2023-05-19T11:27:27;18.60;99.90
5940;DHT22;2995;-31.998;115.906;2023-05-19T11:30:01;18.60;99.90
5940;DHT22;2995;-31.998;115.906;2023-05-19T11:32:41;18.60;99.90
5940;DHT22;2995;-31.998;115.906;2023-05-19T11:35:13;18.50;99.90
5940;DHT22;2995;-31.998;115.906;2023-05-19T11:37:47;18.50;99.90
5940;DHT22;2995;-31.998;115.906;2023-05-19T11:40:22;18.30;99.90
5940;DHT22;2995;-31.998;115.906;2023-05-19T11:42:55;18.20;99.90
5940;DHT22;2995;-31.998;115.906;2023-05-19T11:45:33;18.30;99.90
5940;DHT22;2995;-31.998;115.906;2023-05-19T11:48:10;18.20;99.90
5940;DHT22;2995;-31.998;115.906;2023-05-19T11:50:43;18.10;99.90
5940;DHT22;2995;-31.998;115.906;2023-05-19T11:53:15;18.00;99.90
5940;DHT22;2995;-31.998;115.906;2023-05-19T11:55:48;17.90;99.90
5940;DHT22;2995;-31.998;115.906;2023-05-19T11:58:25;17.80;99.90
5940;DHT22;2995;-31.998;115.906;2023-05-19T12:01:04;17.80;99.90
5940;DHT22;2995;-31.998;115.906;2023-05-19T12:03:35;17.80;99.90
5940;DHT22;2995;-31.998;115.906;2023-05-19T12:06:07;17.70;99.90
5940;DHT22;2995;-31.998;115.906;2023-05-19T12:08:38;17.60;99.90
5940;DHT22;2995;-31.998;115.906;2023-05-19T12:11:10;17.60;99.90
5940;DHT22;2995;-31.998;115.906;2023-05-19T12:13:42;17.50;99.90
5940;DHT22;2995;-31.998;115.906;2023-05-19T12:16:19;17.50;99.90
5940;DHT22;2995;-31.998;115.906;2023-05-19T12:18:50;17.40;99.90
5940;DHT22;2995;-31.998;115.906;2023-05-19T12:21:22;17.40;99.90
5940;DHT22;2995;-31.998;115.906;2023-05-19T12:23:54;17.30;99.90
5940;DHT22;2995;-31.998;115.906;2023-05-19T12:26:25;17.30;99.90
5940;DHT22;2995;-31.998;115.906;2023-05-19T12:28:57;17.20;99.90
5940;DHT22;2995;-31.998;115.906;2023-05-19T12:31:31;17.20;99.90
5940;DHT22;2995;-31.998;115.906;2023-05-19T12:34:02;17.00;99.90
5940;DHT22;2995;-31.998;115.906;2023-05-19T12:36:34;16.90;99.90
5940;DHT22;2995;-31.998;115.906;2023-05-19T12:39:06;17.00;99.90
5940;DHT22;2995;-31.998;115.906;2023-05-19T12:41:42;16.90;99.90
5940;DHT22;2995;-31.998;115.906;2023-05-19T12:44:17;16.70;99.90
5940;DHT22;2995;-31.998;115.906;2023-05-19T12:46:53;16.70;99.90
5940;DHT22;2995;-31.998;115.906;2023-05-19T12:49:28;16.70;99.90
5940;DHT22;2995;-31.998;115.906;2023-05-19T12:52:01;16.60;99.90
5940;DHT22;2995;-31.998;115.906;2023-05-19T12:54:34;16.60;99.90
5940;DHT22;2995;-31.998;115.906;2023-05-19T12:57:06;16.50;99.90
5940;DHT22;2995;-31.998;115.906;2023-05-19T12:59:37;16.60;99.90
5940;DHT22;2995;-31.998;115.906;2023-05-19T13:02:10;16.40;99.90
5940;DHT22;2995;-31.998;115.906;2023-05-19T13:04:42;16.40;99.90
5940;DHT22;2995;-31.998;115.906;2023-05-19T13:07:13;16.30;99.90
5940;DHT22;2995;-31.998;115.906;2023-05-19T13:09:45;16.30;99.90
5940;DHT22;2995;-31.998;115.906;2023-05-19T13:12:16;16.30;99.90
5940;DHT22;2995;-31.998;115.906;2023-05-19T13:14:48;16.20;99.90
5940;DHT22;2995;-31.998;115.906;2023-05-19T13:17:21;16.20;99.90
5940;DHT22;2995;-31.998;115.906;2023-05-19T13:19:52;16.10;99.90
5940;DHT22;2995;-31.998;115.906;2023-05-19T13:22:24;16.10;99.90
5940;DHT22;2995;-31.998;115.906;2023-05-19T13:24:55;16.10;99.90
5940;DHT22;2995;-31.998;115.906;2023-05-19T13:27:26;16.10;99.90
5940;DHT22;2995;-31.998;115.906;2023-05-19T13:29:58;16.10;99.90
5940;DHT22;2995;-31.998;115.906;2023-05-19T13:32:31;15.90;99.90
5940;DHT22;2995;-31.998;115.906;2023-05-19T13:35:02;15.90;99.90
5940;DHT22;2995;-31.998;115.906;2023-05-19T13:37:33;15.90;99.90
5940;DHT22;2995;-31.998;115.906;2023-05-19T13:40:06;16.00;99.90
5940;DHT22;2995;-31.998;115.906;2023-05-19T13:42:40;15.90;99.90
5940;DHT22;2995;-31.998;115.906;2023-05-19T13:45:17;15.80;99.90
5940;DHT22;2995;-31.998;115.906;2023-05-19T13:47:53;15.80;99.90
5940;DHT22;2995;-31.998;115.906;2023-05-19T13:50:26;15.80;99.90
5940;DHT22;2995;-31.998;115.906;2023-05-19T13:53:00;15.80;99.90
5940;DHT22;2995;-31.998;115.906;2023-05-19T13:55:32;15.70;99.90
5940;DHT22;2995;-31.998;115.906;2023-05-19T13:58:03;15.60;99.90
5940;DHT22;2995;-31.998;115.906;2023-05-19T14:00:39;15.70;99.90
5940;DHT22;2995;-31.998;115.906;2023-05-19T14:03:13;15.70;99.90
5940;DHT22;2995;-31.998;115.906;2023-05-19T14:05:47;15.60;99.90
5940;DHT22;2995;-31.998;115.906;2023-05-19T14:08:19;15.50;99.90
5940;DHT22;2995;-31.998;115.906;2023-05-19T14:10:53;15.50;99.90
5940;DHT22;2995;-31.998;115.906;2023-05-19T14:13:24;15.40;99.90
5940;DHT22;2995;-31.998;115.906;2023-05-19T14:15:57;15.40;99.90
5940;DHT22;2995;-31.998;115.906;2023-05-19T14:18:30;15.40;99.90
5940;DHT22;2995;-31.998;115.906;2023-05-19T14:21:01;15.40;99.90
5940;DHT22;2995;-31.998;115.906;2023-05-19T14:23:33;15.40;99.90
5940;DHT22;2995;-31.998;115.906;2023-05-19T14:26:04;15.30;99.90
5940;DHT22;2995;-31.998;115.906;2023-05-19T14:28:36;15.30;99.90
5940;DHT22;2995;-31.998;115.906;2023-05-19T14:31:11;15.30;99.90
5940;DHT22;2995;-31.998;115.906;2023-05-19T14:33:44;15.20;99.90
5940;DHT22;2995;-31.998;115.906;2023-05-19T14:36:15;15.10;99.90
5940;DHT22;2995;-31.998;115.906;2023-05-19T14:38:47;15.10;99.90
5940;DHT22;2995;-31.998;115.906;2023-05-19T14:41:20;15.20;99.90
5940;DHT22;2995;-31.998;115.906;2023-05-19T14:43:54;15.20;99.90
5940;DHT22;2995;-31.998;115.906;2023-05-19T14:46:27;15.10;99.90
5940;DHT22;2995;-31.998;115.906;2023-05-19T14:49:04;15.00;99.90
5940;DHT22;2995;-31.998;115.906;2023-05-19T14:51:36;15.00;99.90
5940;DHT22;2995;-31.998;115.906;2023-05-19T14:54:07;15.00;99.90
5940;DHT22;2995;-31.998;115.906;2023-05-19T14:56:38;15.00;99.90
5940;DHT22;2995;-31.998;115.906;2023-05-19T14:59:10;14.90;99.90
5940;DHT22;2995;-31.998;115.906;2023-05-19T15:01:41;14.80;99.90
5940;DHT22;2995;-31.998;115.906;2023-05-19T15:04:14;14.80;99.90
5940;DHT22;2995;-31.998;115.906;2023-05-19T15:06:45;14.80;99.90
5940;DHT22;2995;-31.998;115.906;2023-05-19T15:09:16;14.80;99.90
5940;DHT22;2995;-31.998;115.906;2023-05-19T15:11:47;14.80;99.90
5940;DHT22;2995;-31.998;115.906;2023-05-19T15:14:19;14.80;99.90
5940;DHT22;2995;-31.998;115.906;2023-05-19T15:16:50;14.80;99.90
5940;DHT22;2995;-31.998;115.906;2023-05-19T15:19:24;14.80;99.90
5940;DHT22;2995;-31.998;115.906;2023-05-19T15:21:56;14.80;99.90
5940;DHT22;2995;-31.998;115.906;2023-05-19T15:24:28;14.80;99.90
5940;DHT22;2995;-31.998;115.906;2023-05-19T15:26:59;14.70;99.90
5940;DHT22;2995;-31.998;115.906;2023-05-19T15:29:30;14.80;99.90
5940;DHT22;2995;-31.998;115.906;2023-05-19T15:32:01;14.80;99.90
5940;DHT22;2995;-31.998;115.906;2023-05-19T15:34:35;14.80;99.90
5940;DHT22;2995;-31.998;115.906;2023-05-19T15:37:06;14.80;99.90
5940;DHT22;2995;-31.998;115.906;2023-05-19T15:39:37;14.80;99.90
5940;DHT22;2995;-31.998;115.906;2023-05-19T15:42:09;15.00;99.90
5940;DHT22;2995;-31.998;115.906;2023-05-19T15:44:43;15.00;99.90
5940;DHT22;2995;-31.998;115.906;2023-05-19T15:47:17;15.20;99.90
5940;DHT22;2995;-31.998;115.906;2023-05-19T15:49:53;15.20;99.90
5940;DHT22;2995;-31.998;115.906;2023-05-19T15:52:25;15.30;99.90
5940;DHT22;2995;-31.998;115.906;2023-05-19T15:54:59;15.50;99.90